createdAt,value
2017-07-28T00:03:33.907Z,5.90
2017-07-28T00:06:10.935Z,5.90
2017-07-28T00:08:44.818Z,5.78
2017-07-28T00:11:24.851Z,5.12
2017-07-28T00:14:04.932Z,5.20
2017-07-28T00:16:46.484Z,6.57
2017-07-28T00:19:36.732Z,6.72
2017-07-28T00:22:12.947Z,5.80
2017-07-28T00:24:43.570Z,6.82
2017-07-28T00:27:27.593Z,7.00
2017-07-28T00:32:52.972Z,7.30
2017-07-28T00:35:32.424Z,6.68
2017-07-28T00:38:07.978Z,6.85
2017-07-28T00:40:46.251Z,7.40
2017-07-28T00:43:19.985Z,6.53
2017-07-28T00:48:34.255Z,7.65
2017-07-28T00:51:18.276Z,6.75
2017-07-28T00:53:55.780Z,7.45
2017-07-28T00:56:38.951Z,5.93
2017-07-28T00:59:23.116Z,7.07
2017-07-28T01:01:59.476Z,8.00
2017-07-28T01:04:48.345Z,7.30
2017-07-28T01:07:26.551Z,6.55
2017-07-28T01:10:16.026Z,6.90
2017-07-28T01:18:44.020Z,6.35
2017-07-28T01:21:24.381Z,7.18
2017-07-28T01:26:47.921Z,7.40
2017-07-28T01:29:33.635Z,5.85
2017-07-28T01:32:07.466Z,6.10
2017-07-28T01:34:43.275Z,6.57
2017-07-28T01:37:17.835Z,7.22
2017-07-28T01:39:58.242Z,6.47
2017-07-28T01:45:14.358Z,7.30
2017-07-28T01:47:58.304Z,6.70
2017-07-28T01:50:39.880Z,7.28
2017-07-28T01:53:17.540Z,6.85
2017-07-28T01:56:01.208Z,7.03
2017-07-28T01:58:44.790Z,9.13
2017-07-28T02:01:16.591Z,8.32
2017-07-28T02:03:56.977Z,8.40
2017-07-28T02:06:31.785Z,8.80
2017-07-28T02:09:14.486Z,9.73
2017-07-28T02:11:45.341Z,9.90
2017-07-28T02:14:22.330Z,9.43
2017-07-28T02:17:07.401Z,9.48
2017-07-28T02:19:46.145Z,10.07
2017-07-28T02:22:21.362Z,9.98
2017-07-28T02:24:51.755Z,10.85
2017-07-28T02:27:31.413Z,10.18
2017-07-28T02:30:08.776Z,10.95
2017-07-28T02:32:46.902Z,10.60
2017-07-28T02:35:23.133Z,12.02
2017-07-28T02:38:05.923Z,10.10
2017-07-28T02:43:30.215Z,9.70
2017-07-28T02:46:08.229Z,10.63
2017-07-28T02:48:48.354Z,10.80
2017-07-28T02:51:20.959Z,10.60
2017-07-28T02:53:58.466Z,12.27
2017-07-28T02:56:31.219Z,11.68
2017-07-28T02:59:07.495Z,11.25
2017-07-28T03:01:39.751Z,11.57
2017-07-28T03:09:54.517Z,10.23
2017-07-28T03:12:36.646Z,11.52
2017-07-28T03:18:10.565Z,9.80
2017-07-28T03:20:49.008Z,10.57
2017-07-28T03:23:23.842Z,11.38
2017-07-28T03:28:57.012Z,10.48
2017-07-28T03:34:24.431Z,9.82
2017-07-28T03:40:06.160Z,9.43
2017-07-28T03:42:42.021Z,10.50
2017-07-28T03:45:26.543Z,10.02
2017-07-28T03:48:07.936Z,9.18
2017-07-28T03:50:52.399Z,10.07
2017-07-28T03:53:22.124Z,11.18
2017-07-28T03:55:57.957Z,11.38
2017-07-28T04:03:58.637Z,9.40
2017-07-28T04:06:32.921Z,10.75
2017-07-28T04:09:07.145Z,10.00
2017-07-28T04:11:44.024Z,10.93
2017-07-28T04:14:19.762Z,10.05
2017-07-28T04:16:55.008Z,10.27
2017-07-28T04:22:06.523Z,9.88
2017-07-28T04:24:39.701Z,10.63
2017-07-28T04:27:14.119Z,9.73
2017-07-28T04:29:47.147Z,9.20
2017-07-28T04:32:27.132Z,10.57
2017-07-28T04:35:02.003Z,9.48
2017-07-28T04:37:32.728Z,9.57
2017-07-28T04:40:07.843Z,10.00
2017-07-28T04:48:03.290Z,9.63
2017-07-28T04:50:39.713Z,9.23
2017-07-28T04:53:11.694Z,10.32
2017-07-28T04:55:47.441Z,9.73
2017-07-28T04:58:30.023Z,9.65
2017-07-28T05:01:06.201Z,11.02
2017-07-28T05:03:46.151Z,8.85
2017-07-28T05:06:26.243Z,6.62
2017-07-28T05:09:00.862Z,4.20
2017-07-28T05:11:35.454Z,4.68
2017-07-28T05:16:59.129Z,4.50
2017-07-28T05:19:32.483Z,4.45
2017-07-28T05:22:05.396Z,3.40
2017-07-28T05:24:37.393Z,3.42
2017-07-28T05:27:09.444Z,3.60
2017-07-28T05:29:39.252Z,4.53
2017-07-28T05:32:12.298Z,3.22
2017-07-28T05:34:48.836Z,3.80
2017-07-28T05:43:06.820Z,3.65
2017-07-28T05:45:42.367Z,3.45
2017-07-28T05:48:16.021Z,3.70
2017-07-28T05:51:05.151Z,3.15
2017-07-28T05:53:39.212Z,3.83
2017-07-28T05:56:12.023Z,2.58
2017-07-28T05:58:45.714Z,3.20
2017-07-28T06:01:19.110Z,2.47
2017-07-28T06:03:51.607Z,2.50
2017-07-28T06:06:23.075Z,2.92
2017-07-28T06:08:54.590Z,3.03
2017-07-28T06:11:32.258Z,3.42
2017-07-28T06:14:06.065Z,2.80
2017-07-28T06:16:37.892Z,3.40
2017-07-28T06:19:07.929Z,3.33
2017-07-28T06:21:42.660Z,3.40
2017-07-28T06:24:11.601Z,3.10
2017-07-28T06:26:41.288Z,3.10
2017-07-28T06:29:10.203Z,3.30
2017-07-28T06:31:39.090Z,5.57
2017-07-28T06:34:07.994Z,3.95
2017-07-28T06:36:36.876Z,3.30
2017-07-28T06:39:05.432Z,3.10
2017-07-28T06:41:34.130Z,2.87
2017-07-28T06:44:03.741Z,3.50
2017-07-28T06:46:32.626Z,3.40
2017-07-28T06:49:01.509Z,4.50
2017-07-28T06:51:30.407Z,4.28
2017-07-28T06:53:59.295Z,4.22
2017-07-28T06:56:28.198Z,3.87
2017-07-28T06:58:57.057Z,4.55
2017-07-28T07:01:25.943Z,4.85
2017-07-28T07:03:54.500Z,5.57
2017-07-28T07:06:23.377Z,4.87
2017-07-28T07:08:52.266Z,4.90
2017-07-28T07:11:21.167Z,6.00
2017-07-28T07:13:50.063Z,6.55
2017-07-28T07:16:18.970Z,5.55
2017-07-28T07:18:47.830Z,5.10
2017-07-28T07:21:16.747Z,4.90
2017-07-28T07:23:46.840Z,5.10
2017-07-28T07:26:15.701Z,4.97
2017-07-28T07:28:45.347Z,4.50
2017-07-28T07:31:14.210Z,6.45
2017-07-28T07:33:43.084Z,5.50
2017-07-28T07:36:15.079Z,4.62
2017-07-28T07:38:45.344Z,5.20
2017-07-28T07:41:21.427Z,6.18
2017-07-28T07:43:58.881Z,4.93
2017-07-28T07:46:33.778Z,5.18
2017-07-28T07:51:44.344Z,5.60
2017-07-28T07:54:15.836Z,5.85
2017-07-28T07:56:48.529Z,5.03
2017-07-28T07:59:17.449Z,6.15
2017-07-28T08:01:48.003Z,6.12
2017-07-28T08:04:16.856Z,5.22
2017-07-28T08:06:45.762Z,5.80
2017-07-28T08:09:17.687Z,4.95
2017-07-28T08:11:49.071Z,5.00
2017-07-28T08:14:26.473Z,5.68
2017-07-28T08:17:03.582Z,4.65
2017-07-28T08:19:49.465Z,5.45
2017-07-28T08:22:36.724Z,5.20
2017-07-28T08:25:15.180Z,6.07
2017-07-28T08:27:54.307Z,6.87
2017-07-28T08:30:32.648Z,4.85
2017-07-28T08:33:11.618Z,12.35
2017-07-28T08:35:42.511Z,6.22
2017-07-28T08:38:15.029Z,5.82
2017-07-28T08:40:47.014Z,5.60
2017-07-28T08:43:27.134Z,6.05
2017-07-28T08:45:58.261Z,6.12
2017-07-28T08:48:28.785Z,6.20
2017-07-28T08:51:01.430Z,7.53
2017-07-28T08:53:36.936Z,6.60
2017-07-28T08:56:08.877Z,6.40
2017-07-28T08:58:43.126Z,6.70
2017-07-28T09:01:12.659Z,6.20
2017-07-28T09:03:49.342Z,5.60
2017-07-28T09:06:19.719Z,6.28
2017-07-28T09:08:50.377Z,5.75
2017-07-28T09:11:22.739Z,6.05
2017-07-28T09:13:52.700Z,5.90
2017-07-28T09:16:23.418Z,5.68
2017-07-28T09:19:00.294Z,6.30
2017-07-28T09:21:36.843Z,6.57
2017-07-28T09:24:13.755Z,5.25
2017-07-28T09:26:50.087Z,5.78
2017-07-28T09:29:30.460Z,6.78
2017-07-28T09:32:10.070Z,5.55
2017-07-28T09:34:44.398Z,5.15
2017-07-28T09:37:17.978Z,5.40
2017-07-28T09:39:49.081Z,4.62
2017-07-28T09:45:07.396Z,5.60
2017-07-28T09:47:40.625Z,5.43
2017-07-28T09:50:28.819Z,5.40
2017-07-28T09:53:11.205Z,5.55
2017-07-28T09:58:23.347Z,5.43
2017-07-28T10:03:44.164Z,4.55
2017-07-28T10:06:16.218Z,4.05
2017-07-28T10:08:50.470Z,4.35
2017-07-28T10:11:22.943Z,4.85
2017-07-28T10:13:55.975Z,4.55
2017-07-28T10:16:28.237Z,4.05
2017-07-28T10:18:57.228Z,4.85
2017-07-28T10:21:29.677Z,5.78
2017-07-28T10:24:03.773Z,4.53
2017-07-28T10:26:38.776Z,4.95
2017-07-28T10:29:12.991Z,4.80
2017-07-28T10:31:49.673Z,4.35
2017-07-28T10:34:34.814Z,4.80
2017-07-28T10:37:11.011Z,4.97
2017-07-28T10:42:23.956Z,4.72
2017-07-28T10:44:59.515Z,4.37
2017-07-28T10:47:32.843Z,3.85
2017-07-28T10:50:07.250Z,3.83
2017-07-28T10:52:40.316Z,4.10
2017-07-28T10:55:10.172Z,4.10
2017-07-28T10:57:42.048Z,4.22
2017-07-28T11:00:12.719Z,4.53
2017-07-28T11:02:42.497Z,4.20
2017-07-28T11:05:13.234Z,4.28
2017-07-28T11:07:48.272Z,4.55
2017-07-28T11:10:18.704Z,4.75
2017-07-28T11:12:47.600Z,4.05
2017-07-28T11:15:18.326Z,4.47
2017-07-28T11:17:52.235Z,4.15
2017-07-28T11:20:32.459Z,5.20
2017-07-28T11:23:23.251Z,4.05
2017-07-28T11:34:12.362Z,4.55
2017-07-28T11:36:46.106Z,4.25
2017-07-28T11:39:31.108Z,3.62
2017-07-28T11:42:02.897Z,4.40
2017-07-28T11:44:37.780Z,3.92
2017-07-28T11:47:13.806Z,4.20
2017-07-28T11:49:47.993Z,3.28
2017-07-28T11:52:22.694Z,4.32
2017-07-28T11:54:54.454Z,3.55
2017-07-28T11:57:26.463Z,4.00
2017-07-28T12:00:05.049Z,3.70
2017-07-28T12:02:43.340Z,3.80
2017-07-28T12:05:17.694Z,3.53
2017-07-28T12:07:49.083Z,3.70
2017-07-28T12:10:22.755Z,3.55
2017-07-28T12:12:58.219Z,4.62
2017-07-28T12:15:31.393Z,4.03
2017-07-28T12:18:05.553Z,4.00
2017-07-28T12:23:31.133Z,3.90
2017-07-28T12:26:02.848Z,3.90
2017-07-28T12:28:42.365Z,3.92
2017-07-28T12:31:13.054Z,5.10
2017-07-28T12:33:45.486Z,4.55
2017-07-28T12:36:15.581Z,4.50
2017-07-28T12:38:46.636Z,4.68
2017-07-28T12:41:18.167Z,4.40
2017-07-28T12:43:52.067Z,4.07
2017-07-28T12:46:21.024Z,5.07
2017-07-28T12:48:50.608Z,4.45
2017-07-28T12:51:20.837Z,4.97
2017-07-28T12:53:50.085Z,4.78
2017-07-28T12:56:18.963Z,5.70
2017-07-28T12:58:48.875Z,5.25
2017-07-28T13:01:19.136Z,5.57
2017-07-28T13:03:49.046Z,5.00
2017-07-28T13:06:20.899Z,5.75
2017-07-28T13:08:49.849Z,5.00
2017-07-28T13:11:19.619Z,5.37
2017-07-28T13:13:52.028Z,4.60
2017-07-28T13:16:21.887Z,5.18
2017-07-28T13:18:50.800Z,4.53
2017-07-28T13:21:19.698Z,3.80
2017-07-28T13:23:49.846Z,4.10
2017-07-28T13:26:18.791Z,3.97
2017-07-28T13:28:47.702Z,4.85
2017-07-28T13:31:16.584Z,4.07
2017-07-28T13:33:45.490Z,3.95
2017-07-28T13:36:14.158Z,3.33
2017-07-28T13:38:44.098Z,4.57
2017-07-28T13:41:18.565Z,3.85
2017-07-28T13:43:52.501Z,4.25
2017-07-28T13:46:38.526Z,4.17
2017-07-28T13:49:09.729Z,4.65
2017-07-28T13:51:39.250Z,3.85
2017-07-28T13:54:10.802Z,4.33
2017-07-28T13:56:41.802Z,4.03
2017-07-28T13:59:12.760Z,4.00
2017-07-28T14:01:58.838Z,3.58
2017-07-28T14:04:30.570Z,3.20
2017-07-28T14:07:03.214Z,3.85
2017-07-28T14:09:33.768Z,2.72
2017-07-28T14:12:25.909Z,3.17
2017-07-28T14:17:49.801Z,3.22
2017-07-28T14:20:32.834Z,3.35
2017-07-28T14:23:07.071Z,2.87
2017-07-28T14:25:37.403Z,2.62
2017-07-28T14:28:17.216Z,2.87
2017-07-28T14:36:22.522Z,2.97
2017-07-28T14:38:57.361Z,2.30
2017-07-28T14:41:31.611Z,2.60
2017-07-28T14:44:00.480Z,2.45
2017-07-28T14:46:42.136Z,2.60
2017-07-28T14:49:16.713Z,2.05
2017-07-28T14:51:46.120Z,2.08
2017-07-28T14:54:15.025Z,2.20
2017-07-28T14:56:43.923Z,1.87
2017-07-28T14:59:12.820Z,2.30
2017-07-28T15:01:41.710Z,2.25
2017-07-28T15:04:10.343Z,2.13
2017-07-28T15:06:38.981Z,2.47
2017-07-28T15:09:07.632Z,1.73
2017-07-28T15:11:36.705Z,2.00
2017-07-28T15:14:05.609Z,1.85
2017-07-28T15:16:34.516Z,2.55
2017-07-28T15:19:03.420Z,2.15
2017-07-28T15:21:32.325Z,2.20
2017-07-28T15:24:01.235Z,1.92
2017-07-28T15:26:30.897Z,1.85
2017-07-28T15:28:59.787Z,1.50
2017-07-28T15:31:28.679Z,1.90
2017-07-28T15:33:57.549Z,1.87
2017-07-28T15:36:26.458Z,1.50
2017-07-28T15:38:55.344Z,1.60
2017-07-28T15:41:25.225Z,1.73
2017-07-28T15:43:54.858Z,1.50
2017-07-28T15:46:23.759Z,1.62
2017-07-28T15:48:52.620Z,1.30
2017-07-28T15:51:22.287Z,1.50
2017-07-28T15:53:51.191Z,1.52
2017-07-28T15:56:20.985Z,1.70
2017-07-28T15:58:49.905Z,1.30
2017-07-28T16:01:18.764Z,1.75
2017-07-28T16:03:47.649Z,1.33
2017-07-28T16:06:16.567Z,1.95
2017-07-28T16:08:45.466Z,1.73
2017-07-28T16:11:15.089Z,1.35
2017-07-28T16:13:44.762Z,1.30
2017-07-28T16:16:13.643Z,1.12
2017-07-28T16:18:42.545Z,1.50
2017-07-28T16:21:11.419Z,1.20
2017-07-28T16:23:40.334Z,1.30
2017-07-28T16:26:09.250Z,1.85
2017-07-28T16:28:38.235Z,1.17
2017-07-28T16:31:07.133Z,2.10
2017-07-28T16:33:36.906Z,1.27
2017-07-28T16:36:05.792Z,1.52
2017-07-28T16:38:34.686Z,1.70
2017-07-28T16:41:03.572Z,1.50
2017-07-28T16:43:32.469Z,1.75
2017-07-28T16:46:01.363Z,1.30
2017-07-28T16:48:30.266Z,1.58
2017-07-28T16:50:59.174Z,1.23
2017-07-28T16:53:28.058Z,1.70
2017-07-28T16:55:56.950Z,1.85
2017-07-28T16:58:25.861Z,1.30
2017-07-28T17:00:54.755Z,1.80
2017-07-28T17:03:23.642Z,1.27
2017-07-28T17:05:52.526Z,1.90
2017-07-28T17:08:21.411Z,1.62
2017-07-28T17:10:50.269Z,1.50
2017-07-28T17:13:19.157Z,2.35
2017-07-28T17:15:48.050Z,1.65
2017-07-28T17:18:16.945Z,1.48
2017-07-28T17:20:45.831Z,1.55
2017-07-28T17:23:14.719Z,1.50
2017-07-28T17:25:43.672Z,1.50
2017-07-28T17:28:12.663Z,2.20
2017-07-28T17:30:41.548Z,1.60
2017-07-28T17:33:10.249Z,1.80
2017-07-28T17:35:38.961Z,1.85
2017-07-28T17:38:08.421Z,2.42
2017-07-28T17:40:37.323Z,1.80
2017-07-28T17:43:06.238Z,1.67
2017-07-28T17:45:35.914Z,1.65
2017-07-28T17:48:04.834Z,2.40
2017-07-28T17:50:34.488Z,1.67
2017-07-28T17:53:03.381Z,1.73
2017-07-28T17:55:32.240Z,1.90
2017-07-28T17:58:01.867Z,1.30
2017-07-28T18:00:30.753Z,1.90
2017-07-28T18:02:59.659Z,2.17
2017-07-28T18:05:29.531Z,1.70
2017-07-28T18:08:00.048Z,1.90
2017-07-28T18:10:28.936Z,1.42
2017-07-28T18:12:57.833Z,1.83
2017-07-28T18:15:27.765Z,1.35
2017-07-28T18:17:57.481Z,1.75
2017-07-28T18:20:26.378Z,1.90
2017-07-28T18:22:56.055Z,2.00
2017-07-28T18:25:24.974Z,2.10
2017-07-28T18:27:53.860Z,1.70
2017-07-28T18:30:22.995Z,1.73
2017-07-28T18:32:51.886Z,1.80
2017-07-28T18:35:20.768Z,1.73
2017-07-28T18:37:50.469Z,1.67
2017-07-28T18:40:20.124Z,1.70
2017-07-28T18:42:49.017Z,1.83
2017-07-28T18:45:17.917Z,1.48
2017-07-28T18:47:46.818Z,2.33
2017-07-28T18:50:15.711Z,1.75
2017-07-28T18:52:44.561Z,1.98
2017-07-28T18:55:13.459Z,2.10
2017-07-28T18:57:42.346Z,2.30
2017-07-28T19:00:11.245Z,1.73
2017-07-28T19:02:40.128Z,3.17
2017-07-28T19:05:09.025Z,1.87
2017-07-28T19:07:37.906Z,2.72
2017-07-28T19:10:06.803Z,2.30
2017-07-28T19:12:35.681Z,1.87
2017-07-28T19:15:04.224Z,2.25
2017-07-28T19:17:33.114Z,2.20
2017-07-28T19:20:02.014Z,1.90
2017-07-28T19:22:30.894Z,2.30
2017-07-28T19:24:59.794Z,2.85
2017-07-28T19:27:28.678Z,2.03
2017-07-28T19:29:57.582Z,1.70
2017-07-28T19:32:26.432Z,1.90
2017-07-28T19:34:55.328Z,2.47
2017-07-28T19:37:24.197Z,1.87
2017-07-28T19:39:53.102Z,2.00
2017-07-28T19:42:22.007Z,2.00
2017-07-28T19:44:50.889Z,2.20
2017-07-28T19:47:19.769Z,2.10
2017-07-28T19:49:48.665Z,1.65
2017-07-28T19:52:17.552Z,1.95
2017-07-28T19:54:46.463Z,2.10
2017-07-28T19:57:15.348Z,2.35
2017-07-28T19:59:44.232Z,2.50
2017-07-28T20:02:13.131Z,2.00
2017-07-28T20:04:42.046Z,2.80
2017-07-28T20:07:10.942Z,2.50
2017-07-28T20:09:39.841Z,2.37
2017-07-28T20:12:08.725Z,2.37
2017-07-28T20:14:37.454Z,2.47
2017-07-28T20:17:07.904Z,2.47
2017-07-28T20:19:38.610Z,2.95
2017-07-28T20:24:56.556Z,2.15
2017-07-28T20:27:27.511Z,1.90
2017-07-28T20:30:03.394Z,2.72
2017-07-28T20:32:32.399Z,2.60
2017-07-28T20:35:02.050Z,2.78
2017-07-28T20:37:32.857Z,3.45
2017-07-28T20:40:03.923Z,2.42
2017-07-28T20:42:36.286Z,1.95
2017-07-28T20:45:05.178Z,2.35
2017-07-28T20:47:33.889Z,3.33
2017-07-28T20:50:04.432Z,3.50
2017-07-28T20:52:34.091Z,3.15
2017-07-28T20:55:02.994Z,3.20
2017-07-28T20:57:31.883Z,3.08
2017-07-28T21:00:01.575Z,3.00
2017-07-28T21:02:31.385Z,2.65
2017-07-28T21:05:00.274Z,3.25
2017-07-28T21:07:29.153Z,3.70
2017-07-28T21:09:58.041Z,3.40
2017-07-28T21:12:28.202Z,4.20
2017-07-28T21:14:56.417Z,3.72
2017-07-28T21:17:25.304Z,3.40
2017-07-28T21:19:54.958Z,3.50
2017-07-28T21:22:24.650Z,3.72
2017-07-28T21:24:53.543Z,3.25
2017-07-28T21:27:22.173Z,3.50
2017-07-28T21:29:51.062Z,3.92
2017-07-28T21:32:20.726Z,3.70
2017-07-28T21:34:49.581Z,3.67
2017-07-28T21:37:18.456Z,4.80
2017-07-28T21:39:47.318Z,4.43
2017-07-28T21:42:16.218Z,4.03
2017-07-28T21:44:45.109Z,4.60
2017-07-28T21:47:13.999Z,4.40
2017-07-28T21:49:42.893Z,4.80
2017-07-28T21:52:11.776Z,5.22
2017-07-28T21:54:40.668Z,4.32
2017-07-28T21:57:09.554Z,5.53
2017-07-28T21:59:38.402Z,5.05
2017-07-28T22:02:07.271Z,6.10
2017-07-28T22:04:36.163Z,5.30
2017-07-28T22:07:05.044Z,4.60
2017-07-28T22:09:33.941Z,5.70
2017-07-28T22:12:02.820Z,5.20
2017-07-28T22:14:31.700Z,4.90
2017-07-28T22:17:00.605Z,5.65
2017-07-28T22:19:29.466Z,5.12
2017-07-28T22:21:58.386Z,6.18
2017-07-28T22:24:27.283Z,4.87
2017-07-28T22:26:56.172Z,5.53
2017-07-28T22:29:25.061Z,5.10
2017-07-28T22:31:53.920Z,5.18
2017-07-28T22:34:22.774Z,5.05
2017-07-28T22:36:51.655Z,5.30
2017-07-28T22:39:20.832Z,5.20
2017-07-28T22:41:49.737Z,5.15
2017-07-28T22:44:18.634Z,5.43
2017-07-28T22:46:47.545Z,5.53
2017-07-28T22:49:17.201Z,5.70
2017-07-28T22:51:46.099Z,5.85
2017-07-28T22:54:15.013Z,6.53
2017-07-28T22:56:43.877Z,6.50
2017-07-28T22:59:14.232Z,5.93
2017-07-28T23:01:43.120Z,5.25
2017-07-28T23:04:12.013Z,4.95
2017-07-28T23:06:40.912Z,4.78
2017-07-28T23:09:09.784Z,4.40
2017-07-28T23:11:38.674Z,5.50
2017-07-28T23:14:07.565Z,5.10
2017-07-28T23:16:36.458Z,4.47
2017-07-28T23:19:05.351Z,5.72
2017-07-28T23:21:34.268Z,5.78
2017-07-28T23:24:03.167Z,3.75
2017-07-28T23:26:32.049Z,6.30
2017-07-28T23:29:00.924Z,6.28
2017-07-28T23:31:29.809Z,4.53
2017-07-28T23:33:58.692Z,5.10
2017-07-28T23:36:27.671Z,5.10
2017-07-28T23:38:56.560Z,5.87
2017-07-28T23:41:25.433Z,5.05
2017-07-28T23:43:54.330Z,4.82
2017-07-28T23:46:23.221Z,5.32
2017-07-28T23:48:52.063Z,5.45
2017-07-28T23:51:20.958Z,5.47
2017-07-28T23:53:49.833Z,5.28
2017-07-28T23:56:18.704Z,4.75
2017-07-28T23:58:47.591Z,5.22
